sensor_id;sensor_type;location;lat;lon;timestamp;temperature;humidity
69747;DHT22;57018;50.278;19.134;2022-09-09T00:04:35;17.60;99.90
69747;DHT22;57018;50.278;19.134;2022-09-09T00:07:22;17.60;99.90
69747;DHT22;57018;50.278;19.134;2022-09-09T00:09:57;17.60;99.90
69747;DHT22;57018;50.278;19.134;2022-09-09T00:15:05;17.40;99.90
69747;DHT22;57018;50.278;19.134;2022-09-09T00:17:52;17.30;99.90
69747;DHT22;57018;50.278;19.134;2022-09-09T00:20:21;17.20;99.90
69747;DHT22;57018;50.278;19.134;2022-09-09T00:22:59;17.10;99.90
69747;DHT22;57018;50.278;19.134;2022-09-09T00:25:43;17.00;99.90
69747;DHT22;57018;50.278;19.134;2022-09-09T00:28:18;17.00;99.90
69747;DHT22;57018;50.278;19.134;2022-09-09T00:30:46;17.00;99.90
69747;DHT22;57018;50.278;19.134;2022-09-09T00:33:17;16.90;99.90
69747;DHT22;57018;50.278;19.134;2022-09-09T00:35:52;16.90;99.90
69747;DHT22;57018;50.278;19.134;2022-09-09T00:38:21;16.80;99.90
69747;DHT22;57018;50.278;19.134;2022-09-09T00:43:40;16.80;99.90
69747;DHT22;57018;50.278;19.134;2022-09-09T00:55:03;16.60;99.90
69747;DHT22;57018;50.278;19.134;2022-09-09T00:57:31;16.50;99.90
69747;DHT22;57018;50.278;19.134;2022-09-09T01:05:45;16.70;99.90
69747;DHT22;57018;50.278;19.134;2022-09-09T01:10:53;16.50;99.90
69747;DHT22;57018;50.278;19.134;2022-09-09T01:13:26;16.50;99.90
69747;DHT22;57018;50.278;19.134;2022-09-09T01:15:54;16.40;99.90
69747;DHT22;57018;50.278;19.134;2022-09-09T01:18:22;16.50;99.90
69747;DHT22;57018;50.278;19.134;2022-09-09T01:21:16;16.50;99.90
69747;DHT22;57018;50.278;19.134;2022-09-09T01:28:55;16.80;99.90
69747;DHT22;57018;50.278;19.134;2022-09-09T01:31:30;17.00;99.90
69747;DHT22;57018;50.278;19.134;2022-09-09T01:33:56;17.10;99.90
69747;DHT22;57018;50.278;19.134;2022-09-09T01:36:35;17.20;99.90
69747;DHT22;57018;50.278;19.134;2022-09-09T01:39:02;17.30;99.90
69747;DHT22;57018;50.278;19.134;2022-09-09T01:41:28;17.30;99.90
69747;DHT22;57018;50.278;19.134;2022-09-09T01:43:55;17.40;99.90
69747;DHT22;57018;50.278;19.134;2022-09-09T01:46:23;17.40;99.90
69747;DHT22;57018;50.278;19.134;2022-09-09T01:48:55;17.50;99.90
69747;DHT22;57018;50.278;19.134;2022-09-09T01:51:22;17.40;99.90
69747;DHT22;57018;50.278;19.134;2022-09-09T01:53:49;17.50;99.90
69747;DHT22;57018;50.278;19.134;2022-09-09T01:56:40;17.20;99.90
69747;DHT22;57018;50.278;19.134;2022-09-09T01:59:23;17.10;99.90
69747;DHT22;57018;50.278;19.134;2022-09-09T02:02:30;17.00;99.90
69747;DHT22;57018;50.278;19.134;2022-09-09T02:04:42;16.90;99.90
69747;DHT22;57018;50.278;19.134;2022-09-09T02:07:38;16.90;99.90
69747;DHT22;57018;50.278;19.134;2022-09-09T02:12:43;16.60;99.90
69747;DHT22;57018;50.278;19.134;2022-09-09T02:15:15;16.60;99.90
69747;DHT22;57018;50.278;19.134;2022-09-09T02:17:40;16.50;99.90
69747;DHT22;57018;50.278;19.134;2022-09-09T02:20:11;16.50;99.90
69747;DHT22;57018;50.278;19.134;2022-09-09T02:22:40;16.40;99.90
69747;DHT22;57018;50.278;19.134;2022-09-09T02:25:10;16.40;99.90
69747;DHT22;57018;50.278;19.134;2022-09-09T02:27:37;16.30;99.90
69747;DHT22;57018;50.278;19.134;2022-09-09T02:30:04;16.30;99.90
69747;DHT22;57018;50.278;19.134;2022-09-09T02:32:32;16.20;99.90
69747;DHT22;57018;50.278;19.134;2022-09-09T02:35:03;16.20;99.90
69747;DHT22;57018;50.278;19.134;2022-09-09T02:37:33;16.10;99.90
69747;DHT22;57018;50.278;19.134;2022-09-09T02:40:07;16.00;99.90
69747;DHT22;57018;50.278;19.134;2022-09-09T02:42:30;16.10;99.90
69747;DHT22;57018;50.278;19.134;2022-09-09T02:44:57;15.90;99.90
69747;DHT22;57018;50.278;19.134;2022-09-09T02:47:35;16.00;99.90
69747;DHT22;57018;50.278;19.134;2022-09-09T02:55:20;16.20;99.90
69747;DHT22;57018;50.278;19.134;2022-09-09T02:57:45;16.20;99.90
69747;DHT22;57018;50.278;19.134;2022-09-09T03:00:13;16.20;99.90
69747;DHT22;57018;50.278;19.134;2022-09-09T03:02:39;16.30;99.90
69747;DHT22;57018;50.278;19.134;2022-09-09T03:05:06;16.40;99.90
69747;DHT22;57018;50.278;19.134;2022-09-09T03:07:32;16.30;99.90
69747;DHT22;57018;50.278;19.134;2022-09-09T03:09:59;16.30;99.90
69747;DHT22;57018;50.278;19.134;2022-09-09T03:12:25;16.20;99.90
69747;DHT22;57018;50.278;19.134;2022-09-09T03:14:51;16.20;99.90
69747;DHT22;57018;50.278;19.134;2022-09-09T03:17:17;16.10;99.90
69747;DHT22;57018;50.278;19.134;2022-09-09T03:19:43;16.00;99.90
69747;DHT22;57018;50.278;19.134;2022-09-09T03:22:10;16.00;99.90
69747;DHT22;57018;50.278;19.134;2022-09-09T03:24:37;16.00;99.90
69747;DHT22;57018;50.278;19.134;2022-09-09T03:27:03;16.00;99.90
69747;DHT22;57018;50.278;19.134;2022-09-09T03:29:29;15.90;99.90
69747;DHT22;57018;50.278;19.134;2022-09-09T03:31:55;15.80;99.90
69747;DHT22;57018;50.278;19.134;2022-09-09T03:34:21;15.80;99.90
69747;DHT22;57018;50.278;19.134;2022-09-09T03:36:47;15.70;99.90
69747;DHT22;57018;50.278;19.134;2022-09-09T03:39:15;15.70;99.90
69747;DHT22;57018;50.278;19.134;2022-09-09T03:41:41;15.70;99.90
69747;DHT22;57018;50.278;19.134;2022-09-09T03:44:07;15.60;99.90
69747;DHT22;57018;50.278;19.134;2022-09-09T03:46:33;15.60;99.90
69747;DHT22;57018;50.278;19.134;2022-09-09T03:48:59;15.60;99.90
69747;DHT22;57018;50.278;19.134;2022-09-09T03:51:27;15.60;99.90
69747;DHT22;57018;50.278;19.134;2022-09-09T03:53:53;15.40;99.90
69747;DHT22;57018;50.278;19.134;2022-09-09T03:56:21;15.60;99.90
69747;DHT22;57018;50.278;19.134;2022-09-09T03:58:48;15.60;99.90
69747;DHT22;57018;50.278;19.134;2022-09-09T04:01:14;15.60;99.90
69747;DHT22;57018;50.278;19.134;2022-09-09T04:03:42;15.60;99.90
69747;DHT22;57018;50.278;19.134;2022-09-09T04:06:09;15.60;99.90
69747;DHT22;57018;50.278;19.134;2022-09-09T04:08:37;15.50;99.90
69747;DHT22;57018;50.278;19.134;2022-09-09T04:11:04;15.40;99.90
69747;DHT22;57018;50.278;19.134;2022-09-09T04:13:34;15.40;99.90
69747;DHT22;57018;50.278;19.134;2022-09-09T04:16:02;15.40;99.90
69747;DHT22;57018;50.278;19.134;2022-09-09T04:18:29;15.40;99.90
69747;DHT22;57018;50.278;19.134;2022-09-09T04:20:56;15.30;99.90
69747;DHT22;57018;50.278;19.134;2022-09-09T04:23:24;15.40;99.90
69747;DHT22;57018;50.278;19.134;2022-09-09T04:25:53;15.30;99.90
69747;DHT22;57018;50.278;19.134;2022-09-09T04:28:21;15.30;99.90
69747;DHT22;57018;50.278;19.134;2022-09-09T04:30:48;15.30;99.90
69747;DHT22;57018;50.278;19.134;2022-09-09T04:33:14;15.40;99.90
69747;DHT22;57018;50.278;19.134;2022-09-09T04:35:45;15.40;99.90
69747;DHT22;57018;50.278;19.134;2022-09-09T04:38:13;15.50;99.90
69747;DHT22;57018;50.278;19.134;2022-09-09T04:40:45;15.40;99.90
69747;DHT22;57018;50.278;19.134;2022-09-09T04:43:13;15.70;99.90
69747;DHT22;57018;50.278;19.134;2022-09-09T04:45:41;15.80;99.90
69747;DHT22;57018;50.278;19.134;2022-09-09T04:48:09;15.80;99.90
69747;DHT22;57018;50.278;19.134;2022-09-09T04:50:35;15.80;99.90
69747;DHT22;57018;50.278;19.134;2022-09-09T04:53:02;15.90;99.90
69747;DHT22;57018;50.278;19.134;2022-09-09T04:55:30;15.90;99.90
69747;DHT22;57018;50.278;19.134;2022-09-09T04:57:57;16.00;99.90
69747;DHT22;57018;50.278;19.134;2022-09-09T05:00:24;16.10;99.90
69747;DHT22;57018;50.278;19.134;2022-09-09T05:02:51;16.20;99.90
69747;DHT22;57018;50.278;19.134;2022-09-09T05:05:17;16.30;99.90
69747;DHT22;57018;50.278;19.134;2022-09-09T05:07:44;16.50;99.90
69747;DHT22;57018;50.278;19.134;2022-09-09T05:10:10;16.50;99.90
69747;DHT22;57018;50.278;19.134;2022-09-09T05:12:37;16.70;99.90
69747;DHT22;57018;50.278;19.134;2022-09-09T05:15:04;16.70;99.90
69747;DHT22;57018;50.278;19.134;2022-09-09T05:17:30;16.80;99.90
69747;DHT22;57018;50.278;19.134;2022-09-09T05:19:56;16.90;99.90
69747;DHT22;57018;50.278;19.134;2022-09-09T05:22:23;17.00;99.90
69747;DHT22;57018;50.278;19.134;2022-09-09T05:24:50;17.00;99.90
69747;DHT22;57018;50.278;19.134;2022-09-09T05:27:19;17.10;99.90
69747;DHT22;57018;50.278;19.134;2022-09-09T05:29:46;17.30;99.90
69747;DHT22;57018;50.278;19.134;2022-09-09T05:32:12;17.30;99.90
69747;DHT22;57018;50.278;19.134;2022-09-09T05:34:40;17.40;99.90
69747;DHT22;57018;50.278;19.134;2022-09-09T05:37:06;17.50;99.90
69747;DHT22;57018;50.278;19.134;2022-09-09T05:39:34;17.60;99.90
69747;DHT22;57018;50.278;19.134;2022-09-09T05:42:02;17.60;99.90
69747;DHT22;57018;50.278;19.134;2022-09-09T05:44:30;17.60;99.90
69747;DHT22;57018;50.278;19.134;2022-09-09T05:46:56;17.70;99.90
69747;DHT22;57018;50.278;19.134;2022-09-09T05:49:23;17.80;99.90
69747;DHT22;57018;50.278;19.134;2022-09-09T05:51:49;17.90;99.90
69747;DHT22;57018;50.278;19.134;2022-09-09T05:54:16;18.00;99.90
69747;DHT22;57018;50.278;19.134;2022-09-09T05:56:43;18.00;99.90
69747;DHT22;57018;50.278;19.134;2022-09-09T05:59:09;18.00;99.90
69747;DHT22;57018;50.278;19.134;2022-09-09T06:01:37;18.20;99.90
69747;DHT22;57018;50.278;19.134;2022-09-09T06:04:06;18.20;99.90
69747;DHT22;57018;50.278;19.134;2022-09-09T06:06:35;18.20;99.90
69747;DHT22;57018;50.278;19.134;2022-09-09T06:09:04;18.30;99.90
69747;DHT22;57018;50.278;19.134;2022-09-09T06:11:34;18.30;99.90
69747;DHT22;57018;50.278;19.134;2022-09-09T06:14:02;18.20;99.90
69747;DHT22;57018;50.278;19.134;2022-09-09T06:16:29;18.30;99.90
69747;DHT22;57018;50.278;19.134;2022-09-09T06:18:56;18.20;99.90
69747;DHT22;57018;50.278;19.134;2022-09-09T06:21:29;18.30;99.90
69747;DHT22;57018;50.278;19.134;2022-09-09T06:23:56;18.20;99.90
69747;DHT22;57018;50.278;19.134;2022-09-09T06:26:24;18.20;99.90
69747;DHT22;57018;50.278;19.134;2022-09-09T06:28:53;18.30;99.90
69747;DHT22;57018;50.278;19.134;2022-09-09T06:31:24;18.30;99.90
69747;DHT22;57018;50.278;19.134;2022-09-09T06:33:53;18.20;99.90
69747;DHT22;57018;50.278;19.134;2022-09-09T06:38:50;18.30;99.90
69747;DHT22;57018;50.278;19.134;2022-09-09T06:41:18;18.40;99.90
69747;DHT22;57018;50.278;19.134;2022-09-09T06:43:46;18.30;99.90
69747;DHT22;57018;50.278;19.134;2022-09-09T06:46:21;18.40;99.90
69747;DHT22;57018;50.278;19.134;2022-09-09T06:48:45;18.40;99.90
69747;DHT22;57018;50.278;19.134;2022-09-09T06:51:19;18.40;99.90
69747;DHT22;57018;50.278;19.134;2022-09-09T06:53:50;18.30;99.90
69747;DHT22;57018;50.278;19.134;2022-09-09T06:56:22;18.30;99.90
69747;DHT22;57018;50.278;19.134;2022-09-09T06:58:51;18.30;99.90
69747;DHT22;57018;50.278;19.134;2022-09-09T07:01:23;18.40;99.90
69747;DHT22;57018;50.278;19.134;2022-09-09T07:03:51;18.40;99.90
69747;DHT22;57018;50.278;19.134;2022-09-09T07:06:24;18.30;99.90
69747;DHT22;57018;50.278;19.134;2022-09-09T07:08:55;18.40;99.90
69747;DHT22;57018;50.278;19.134;2022-09-09T07:11:24;18.30;99.90
69747;DHT22;57018;50.278;19.134;2022-09-09T07:13:51;18.40;99.90
69747;DHT22;57018;50.278;19.134;2022-09-09T07:16:19;18.50;99.90
69747;DHT22;57018;50.278;19.134;2022-09-09T07:18:51;18.40;99.90
69747;DHT22;57018;50.278;19.134;2022-09-09T07:21:19;18.40;99.90
69747;DHT22;57018;50.278;19.134;2022-09-09T07:23:46;18.40;99.90
69747;DHT22;57018;50.278;19.134;2022-09-09T07:26:15;18.50;99.90
69747;DHT22;57018;50.278;19.134;2022-09-09T07:28:42;18.60;99.90
69747;DHT22;57018;50.278;19.134;2022-09-09T07:31:14;18.80;99.90
69747;DHT22;57018;50.278;19.134;2022-09-09T07:33:43;18.80;99.90
69747;DHT22;57018;50.278;19.134;2022-09-09T07:36:20;18.90;99.90
69747;DHT22;57018;50.278;19.134;2022-09-09T07:38:46;18.90;99.90
69747;DHT22;57018;50.278;19.134;2022-09-09T07:41:15;19.00;99.90
69747;DHT22;57018;50.278;19.134;2022-09-09T07:43:44;19.10;99.90
69747;DHT22;57018;50.278;19.134;2022-09-09T07:46:12;19.00;99.90
69747;DHT22;57018;50.278;19.134;2022-09-09T07:48:45;19.10;99.90
69747;DHT22;57018;50.278;19.134;2022-09-09T07:51:15;19.20;99.90
69747;DHT22;57018;50.278;19.134;2022-09-09T07:53:46;19.20;99.90
69747;DHT22;57018;50.278;19.134;2022-09-09T07:56:15;19.30;99.90
69747;DHT22;57018;50.278;19.134;2022-09-09T07:58:47;19.40;99.90
69747;DHT22;57018;50.278;19.134;2022-09-09T08:01:21;19.50;99.90
69747;DHT22;57018;50.278;19.134;2022-09-09T08:03:52;19.60;99.90
69747;DHT22;57018;50.278;19.134;2022-09-09T08:06:16;19.80;99.90
69747;DHT22;57018;50.278;19.134;2022-09-09T08:08:42;19.80;99.90
69747;DHT22;57018;50.278;19.134;2022-09-09T08:11:12;19.90;99.90
69747;DHT22;57018;50.278;19.134;2022-09-09T08:13:39;20.00;99.90
69747;DHT22;57018;50.278;19.134;2022-09-09T08:16:11;20.20;99.90
69747;DHT22;57018;50.278;19.134;2022-09-09T08:18:38;20.40;99.90
69747;DHT22;57018;50.278;19.134;2022-09-09T08:21:13;20.50;99.90
69747;DHT22;57018;50.278;19.134;2022-09-09T08:23:41;20.70;99.90
69747;DHT22;57018;50.278;19.134;2022-09-09T08:26:16;21.10;99.90
69747;DHT22;57018;50.278;19.134;2022-09-09T08:28:43;21.30;99.90
69747;DHT22;57018;50.278;19.134;2022-09-09T08:31:15;21.40;99.90
69747;DHT22;57018;50.278;19.134;2022-09-09T08:33:43;21.80;99.90
69747;DHT22;57018;50.278;19.134;2022-09-09T08:36:13;21.90;99.90
69747;DHT22;57018;50.278;19.134;2022-09-09T08:38:41;22.20;99.90
69747;DHT22;57018;50.278;19.134;2022-09-09T08:44:09;22.60;99.90
69747;DHT22;57018;50.278;19.134;2022-09-09T08:46:46;22.70;99.90
69747;DHT22;57018;50.278;19.134;2022-09-09T08:49:19;23.00;99.90
69747;DHT22;57018;50.278;19.134;2022-09-09T08:51:44;23.20;99.90
69747;DHT22;57018;50.278;19.134;2022-09-09T08:54:11;23.30;99.90
69747;DHT22;57018;50.278;19.134;2022-09-09T08:56:37;23.50;99.90
69747;DHT22;57018;50.278;19.134;2022-09-09T08:59:04;23.70;99.90
69747;DHT22;57018;50.278;19.134;2022-09-09T09:01:54;24.10;99.90
69747;DHT22;57018;50.278;19.134;2022-09-09T09:07:11;24.50;99.10
69747;DHT22;57018;50.278;19.134;2022-09-09T09:09:46;24.70;96.30
69747;DHT22;57018;50.278;19.134;2022-09-09T09:12:20;24.80;96.10
69747;DHT22;57018;50.278;19.134;2022-09-09T09:14:48;24.90;97.30
69747;DHT22;57018;50.278;19.134;2022-09-09T09:17:17;25.10;97.50
69747;DHT22;57018;50.278;19.134;2022-09-09T09:19:46;25.10;89.90
69747;DHT22;57018;50.278;19.134;2022-09-09T09:22:30;25.10;94.30
69747;DHT22;57018;50.278;19.134;2022-09-09T09:25:08;25.20;93.90
69747;DHT22;57018;50.278;19.134;2022-09-09T09:27:40;25.40;93.20
69747;DHT22;57018;50.278;19.134;2022-09-09T09:32:44;25.70;85.80
69747;DHT22;57018;50.278;19.134;2022-09-09T09:35:12;25.90;83.10
69747;DHT22;57018;50.278;19.134;2022-09-09T09:37:40;26.20;80.20
69747;DHT22;57018;50.278;19.134;2022-09-09T09:40:17;26.60;80.30
69747;DHT22;57018;50.278;19.134;2022-09-09T09:42:56;26.90;76.80
69747;DHT22;57018;50.278;19.134;2022-09-09T09:45:33;27.10;78.60
69747;DHT22;57018;50.278;19.134;2022-09-09T09:48:03;27.10;75.30
69747;DHT22;57018;50.278;19.134;2022-09-09T09:50:30;27.20;76.90
69747;DHT22;57018;50.278;19.134;2022-09-09T09:52:59;27.20;77.30
69747;DHT22;57018;50.278;19.134;2022-09-09T09:55:28;27.20;67.70
69747;DHT22;57018;50.278;19.134;2022-09-09T09:58:01;27.10;65.40
69747;DHT22;57018;50.278;19.134;2022-09-09T10:00:27;27.10;71.60
69747;DHT22;57018;50.278;19.134;2022-09-09T10:02:53;26.80;62.00
69747;DHT22;57018;50.278;19.134;2022-09-09T10:05:26;26.40;61.80
69747;DHT22;57018;50.278;19.134;2022-09-09T10:08:10;26.10;63.30
69747;DHT22;57018;50.278;19.134;2022-09-09T10:18:58;25.40;65.60
69747;DHT22;57018;50.278;19.134;2022-09-09T10:26:52;25.30;61.50
69747;DHT22;57018;50.278;19.134;2022-09-09T10:32:32;25.60;60.90
69747;DHT22;57018;50.278;19.134;2022-09-09T10:37:50;25.40;57.80
69747;DHT22;57018;50.278;19.134;2022-09-09T10:40:31;25.10;58.70
69747;DHT22;57018;50.278;19.134;2022-09-09T10:43:10;25.00;59.30
69747;DHT22;57018;50.278;19.134;2022-09-09T10:45:58;25.10;57.70
69747;DHT22;57018;50.278;19.134;2022-09-09T10:48:39;25.00;57.90
69747;DHT22;57018;50.278;19.134;2022-09-09T10:51:20;24.90;56.60
69747;DHT22;57018;50.278;19.134;2022-09-09T10:56:31;24.70;56.50
69747;DHT22;57018;50.278;19.134;2022-09-09T10:59:07;24.50;56.30
69747;DHT22;57018;50.278;19.134;2022-09-09T11:01:39;24.50;56.30
69747;DHT22;57018;50.278;19.134;2022-09-09T11:04:21;24.50;57.30
69747;DHT22;57018;50.278;19.134;2022-09-09T11:06:53;24.70;56.20
69747;DHT22;57018;50.278;19.134;2022-09-09T11:09:26;24.50;55.40
69747;DHT22;57018;50.278;19.134;2022-09-09T11:11:54;24.30;56.60
69747;DHT22;57018;50.278;19.134;2022-09-09T11:14:49;24.10;57.70
69747;DHT22;57018;50.278;19.134;2022-09-09T11:17:20;23.70;57.70
69747;DHT22;57018;50.278;19.134;2022-09-09T11:19:47;23.60;59.30
69747;DHT22;57018;50.278;19.134;2022-09-09T11:22:29;23.20;59.90
69747;DHT22;57018;50.278;19.134;2022-09-09T11:25:09;23.10;60.60
69747;DHT22;57018;50.278;19.134;2022-09-09T11:33:33;23.30;60.00
69747;DHT22;57018;50.278;19.134;2022-09-09T11:35:29;23.50;59.30
69747;DHT22;57018;50.278;19.134;2022-09-09T11:38:19;23.60;57.90
69747;DHT22;57018;50.278;19.134;2022-09-09T11:40:53;23.60;56.40
69747;DHT22;57018;50.278;19.134;2022-09-09T11:43:25;23.70;56.00
69747;DHT22;57018;50.278;19.134;2022-09-09T11:45:53;23.60;55.90
69747;DHT22;57018;50.278;19.134;2022-09-09T11:48:35;23.40;57.00
69747;DHT22;57018;50.278;19.134;2022-09-09T11:51:07;23.50;58.30
69747;DHT22;57018;50.278;19.134;2022-09-09T11:53:35;23.60;57.50
69747;DHT22;57018;50.278;19.134;2022-09-09T11:56:08;23.80;54.10
69747;DHT22;57018;50.278;19.134;2022-09-09T11:58:41;23.90;52.90
69747;DHT22;57018;50.278;19.134;2022-09-09T12:04:17;24.50;53.50
69747;DHT22;57018;50.278;19.134;2022-09-09T12:06:49;24.80;54.00
69747;DHT22;57018;50.278;19.134;2022-09-09T12:14:56;24.90;51.00
69747;DHT22;57018;50.278;19.134;2022-09-09T12:17:24;24.70;50.40
69747;DHT22;57018;50.278;19.134;2022-09-09T12:22:55;24.30;50.60
69747;DHT22;57018;50.278;19.134;2022-09-09T12:28:47;24.20;51.00
69747;DHT22;57018;50.278;19.134;2022-09-09T12:33:45;24.30;52.00
69747;DHT22;57018;50.278;19.134;2022-09-09T12:36:21;24.50;52.00
69747;DHT22;57018;50.278;19.134;2022-09-09T12:38:43;24.70;51.30
69747;DHT22;57018;50.278;19.134;2022-09-09T12:41:24;24.80;51.80
69747;DHT22;57018;50.278;19.134;2022-09-09T12:43:51;25.10;51.30
69747;DHT22;57018;50.278;19.134;2022-09-09T12:46:43;25.20;50.80
69747;DHT22;57018;50.278;19.134;2022-09-09T12:49:32;25.30;49.10
69747;DHT22;57018;50.278;19.134;2022-09-09T12:52:12;25.30;49.90
69747;DHT22;57018;50.278;19.134;2022-09-09T12:54:34;25.40;50.30
69747;DHT22;57018;50.278;19.134;2022-09-09T12:57:02;25.30;48.10
69747;DHT22;57018;50.278;19.134;2022-09-09T12:59:40;25.00;48.50
69747;DHT22;57018;50.278;19.134;2022-09-09T13:02:21;24.60;49.60
69747;DHT22;57018;50.278;19.134;2022-09-09T13:04:46;24.30;50.70
69747;DHT22;57018;50.278;19.134;2022-09-09T13:07:13;24.20;51.10
69747;DHT22;57018;50.278;19.134;2022-09-09T13:09:42;24.10;50.70
69747;DHT22;57018;50.278;19.134;2022-09-09T13:12:20;24.00;50.60
69747;DHT22;57018;50.278;19.134;2022-09-09T13:14:54;24.00;50.90
69747;DHT22;57018;50.278;19.134;2022-09-09T13:19:51;24.30;52.60
69747;DHT22;57018;50.278;19.134;2022-09-09T13:22:22;24.50;52.50
69747;DHT22;57018;50.278;19.134;2022-09-09T13:25:04;24.70;52.70
69747;DHT22;57018;50.278;19.134;2022-09-09T13:27:34;24.90;51.80
69747;DHT22;57018;50.278;19.134;2022-09-09T13:35:45;25.30;50.40
69747;DHT22;57018;50.278;19.134;2022-09-09T13:38:08;25.40;49.20
69747;DHT22;57018;50.278;19.134;2022-09-09T13:40:35;25.50;49.80
69747;DHT22;57018;50.278;19.134;2022-09-09T13:43:03;25.60;49.80
69747;DHT22;57018;50.278;19.134;2022-09-09T13:45:29;25.80;50.00
69747;DHT22;57018;50.278;19.134;2022-09-09T13:47:55;26.00;51.00
69747;DHT22;57018;50.278;19.134;2022-09-09T13:50:31;26.00;49.70
69747;DHT22;57018;50.278;19.134;2022-09-09T13:52:56;26.30;49.80
69747;DHT22;57018;50.278;19.134;2022-09-09T13:55:26;26.40;47.60
69747;DHT22;57018;50.278;19.134;2022-09-09T13:57:55;26.50;46.70
69747;DHT22;57018;50.278;19.134;2022-09-09T14:00:23;26.60;45.80
69747;DHT22;57018;50.278;19.134;2022-09-09T14:02:51;26.60;46.60
69747;DHT22;57018;50.278;19.134;2022-09-09T14:05:18;26.80;47.40
69747;DHT22;57018;50.278;19.134;2022-09-09T14:07:45;26.80;46.80
69747;DHT22;57018;50.278;19.134;2022-09-09T14:10:11;26.90;46.70
69747;DHT22;57018;50.278;19.134;2022-09-09T14:12:38;27.10;47.00
69747;DHT22;57018;50.278;19.134;2022-09-09T14:15:06;27.00;47.10
69747;DHT22;57018;50.278;19.134;2022-09-09T14:17:32;27.00;46.80
69747;DHT22;57018;50.278;19.134;2022-09-09T14:20:00;26.90;47.00
69747;DHT22;57018;50.278;19.134;2022-09-09T14:22:26;27.00;46.10
69747;DHT22;57018;50.278;19.134;2022-09-09T14:24:52;26.90;46.40
69747;DHT22;57018;50.278;19.134;2022-09-09T14:27:18;26.80;46.10
69747;DHT22;57018;50.278;19.134;2022-09-09T14:29:44;26.70;45.70
69747;DHT22;57018;50.278;19.134;2022-09-09T14:32:11;26.60;47.00
69747;DHT22;57018;50.278;19.134;2022-09-09T14:34:37;26.60;46.10
69747;DHT22;57018;50.278;19.134;2022-09-09T14:37:04;26.40;45.70
69747;DHT22;57018;50.278;19.134;2022-09-09T14:39:30;26.20;46.00
69747;DHT22;57018;50.278;19.134;2022-09-09T14:41:56;25.90;45.80
69747;DHT22;57018;50.278;19.134;2022-09-09T14:44:22;25.60;47.10
69747;DHT22;57018;50.278;19.134;2022-09-09T14:46:48;25.10;47.10
69747;DHT22;57018;50.278;19.134;2022-09-09T14:49:18;24.80;48.30
69747;DHT22;57018;50.278;19.134;2022-09-09T14:51:46;24.70;48.80
69747;DHT22;57018;50.278;19.134;2022-09-09T14:54:13;24.70;48.30
69747;DHT22;57018;50.278;19.134;2022-09-09T14:56:40;24.60;47.50
69747;DHT22;57018;50.278;19.134;2022-09-09T14:59:06;24.60;49.00
69747;DHT22;57018;50.278;19.134;2022-09-09T15:01:33;24.60;49.40
69747;DHT22;57018;50.278;19.134;2022-09-09T15:04:02;24.70;50.10
69747;DHT22;57018;50.278;19.134;2022-09-09T15:06:30;24.80;50.30
69747;DHT22;57018;50.278;19.134;2022-09-09T15:08:59;24.80;50.80
69747;DHT22;57018;50.278;19.134;2022-09-09T15:11:27;24.90;50.70
69747;DHT22;57018;50.278;19.134;2022-09-09T15:13:56;24.90;49.70
69747;DHT22;57018;50.278;19.134;2022-09-09T15:16:25;24.90;49.90
69747;DHT22;57018;50.278;19.134;2022-09-09T15:18:53;24.90;49.70
69747;DHT22;57018;50.278;19.134;2022-09-09T15:21:22;24.80;49.80
69747;DHT22;57018;50.278;19.134;2022-09-09T15:23:49;24.90;50.30
69747;DHT22;57018;50.278;19.134;2022-09-09T15:26:17;24.90;50.30
69747;DHT22;57018;50.278;19.134;2022-09-09T15:28:45;24.80;50.70
69747;DHT22;57018;50.278;19.134;2022-09-09T15:31:23;24.80;51.20
69747;DHT22;57018;50.278;19.134;2022-09-09T15:33:50;24.80;50.30
69747;DHT22;57018;50.278;19.134;2022-09-09T15:36:23;24.70;50.90
69747;DHT22;57018;50.278;19.134;2022-09-09T15:38:49;24.50;50.00
69747;DHT22;57018;50.278;19.134;2022-09-09T15:41:18;24.40;50.70
69747;DHT22;57018;50.278;19.134;2022-09-09T15:43:46;24.20;50.40
69747;DHT22;57018;50.278;19.134;2022-09-09T15:49:03;23.80;51.70
69747;DHT22;57018;50.278;19.134;2022-09-09T15:51:25;23.60;52.90
69747;DHT22;57018;50.278;19.134;2022-09-09T15:53:59;23.50;54.60
69747;DHT22;57018;50.278;19.134;2022-09-09T15:56:26;23.40;56.20
69747;DHT22;57018;50.278;19.134;2022-09-09T15:58:55;23.30;55.90
69747;DHT22;57018;50.278;19.134;2022-09-09T16:01:21;23.10;56.30
69747;DHT22;57018;50.278;19.134;2022-09-09T16:03:47;23.00;57.80
69747;DHT22;57018;50.278;19.134;2022-09-09T16:06:17;22.70;57.80
69747;DHT22;57018;50.278;19.134;2022-09-09T16:08:45;22.50;59.40
69747;DHT22;57018;50.278;19.134;2022-09-09T16:11:21;22.30;60.10
69747;DHT22;57018;50.278;19.134;2022-09-09T16:13:50;22.10;61.30
69747;DHT22;57018;50.278;19.134;2022-09-09T16:16:18;22.00;62.20
69747;DHT22;57018;50.278;19.134;2022-09-09T16:18:47;21.80;63.20
69747;DHT22;57018;50.278;19.134;2022-09-09T16:21:17;21.70;63.50
69747;DHT22;57018;50.278;19.134;2022-09-09T16:23:44;21.50;64.40
69747;DHT22;57018;50.278;19.134;2022-09-09T16:26:13;21.30;64.10
69747;DHT22;57018;50.278;19.134;2022-09-09T16:28:39;21.10;65.50
69747;DHT22;57018;50.278;19.134;2022-09-09T16:31:07;21.00;65.90
69747;DHT22;57018;50.278;19.134;2022-09-09T16:33:33;20.90;68.30
69747;DHT22;57018;50.278;19.134;2022-09-09T16:36:07;20.70;68.90
69747;DHT22;57018;50.278;19.134;2022-09-09T16:38:34;20.60;69.90
69747;DHT22;57018;50.278;19.134;2022-09-09T16:41:03;20.50;69.80
69747;DHT22;57018;50.278;19.134;2022-09-09T16:43:32;20.40;71.80
69747;DHT22;57018;50.278;19.134;2022-09-09T16:45:59;20.40;73.00
69747;DHT22;57018;50.278;19.134;2022-09-09T16:48:31;20.30;73.30
69747;DHT22;57018;50.278;19.134;2022-09-09T16:51:07;20.20;74.30
69747;DHT22;57018;50.278;19.134;2022-09-09T16:53:36;20.10;74.90
69747;DHT22;57018;50.278;19.134;2022-09-09T16:56:11;19.90;75.30
69747;DHT22;57018;50.278;19.134;2022-09-09T16:58:38;19.80;76.40
69747;DHT22;57018;50.278;19.134;2022-09-09T17:01:04;19.70;77.30
69747;DHT22;57018;50.278;19.134;2022-09-09T17:03:31;19.60;78.20
69747;DHT22;57018;50.278;19.134;2022-09-09T17:05:58;19.50;78.40
69747;DHT22;57018;50.278;19.134;2022-09-09T17:08:26;19.40;78.50
69747;DHT22;57018;50.278;19.134;2022-09-09T17:10:52;19.40;79.10
69747;DHT22;57018;50.278;19.134;2022-09-09T17:13:18;19.20;80.10
69747;DHT22;57018;50.278;19.134;2022-09-09T17:15:45;19.20;80.50
69747;DHT22;57018;50.278;19.134;2022-09-09T17:18:12;19.00;81.00